createdAt,value
2019-03-16T00:00:43.511Z,9.90
2019-03-16T00:03:14.392Z,9.90
2019-03-16T00:05:44.133Z,9.90
2019-03-16T00:08:14.251Z,10.00
2019-03-16T00:10:44.082Z,10.00
2019-03-16T00:13:16.064Z,10.00
2019-03-16T00:15:45.626Z,10.00
2019-03-16T00:18:15.362Z,9.90
2019-03-16T00:20:45.246Z,10.00
2019-03-16T00:23:14.997Z,9.90
2019-03-16T00:25:45.100Z,9.90
2019-03-16T00:28:14.833Z,9.90
2019-03-16T00:30:45.383Z,9.90
2019-03-16T00:33:15.541Z,9.90
2019-03-16T00:35:45.293Z,10.00
2019-03-16T00:38:15.106Z,10.00
2019-03-16T00:40:45.286Z,10.00
2019-03-16T00:43:15.168Z,10.00
2019-03-16T00:48:14.577Z,10.00
2019-03-16T00:50:44.426Z,10.00
2019-03-16T00:53:14.647Z,10.00
2019-03-16T00:55:44.429Z,9.90
2019-03-16T00:58:14.165Z,10.00
2019-03-16T01:00:44.389Z,9.90
2019-03-16T01:03:14.371Z,9.90
2019-03-16T01:05:44.113Z,9.90
2019-03-16T01:08:13.851Z,9.90
2019-03-16T01:10:43.599Z,9.90
2019-03-16T01:13:14.305Z,9.90
2019-03-16T01:15:44.202Z,9.90
2019-03-16T01:18:13.940Z,9.90
2019-03-16T01:20:43.757Z,9.90
2019-03-16T01:23:13.490Z,9.90
2019-03-16T01:25:43.311Z,9.90
2019-03-16T01:28:13.045Z,9.90
2019-03-16T01:30:42.905Z,9.90
2019-03-16T01:33:12.701Z,9.90
2019-03-16T01:35:42.705Z,9.90
2019-03-16T01:38:12.441Z,9.80
2019-03-16T01:40:42.259Z,9.80
2019-03-16T01:43:11.994Z,9.80
2019-03-16T01:45:41.998Z,9.80
2019-03-16T01:48:11.742Z,9.80
2019-03-16T01:50:41.629Z,9.80
2019-03-16T01:53:11.611Z,9.80
2019-03-16T01:55:41.428Z,9.80
2019-03-16T01:58:11.237Z,9.70
2019-03-16T02:00:41.125Z,9.70
2019-03-16T02:03:11.822Z,9.70
2019-03-16T02:05:41.651Z,9.70
2019-03-16T02:08:11.449Z,9.70
2019-03-16T02:10:41.278Z,9.70
2019-03-16T02:13:11.090Z,9.70
2019-03-16T02:15:40.913Z,9.60
2019-03-16T02:18:10.729Z,9.60
2019-03-16T02:20:40.499Z,9.50
2019-03-16T02:23:10.307Z,9.50
2019-03-16T02:25:41.439Z,9.50
2019-03-16T02:28:11.250Z,9.40
2019-03-16T02:30:41.034Z,9.40
2019-03-16T02:33:13.333Z,9.40
2019-03-16T02:35:42.311Z,9.40
2019-03-16T02:38:12.149Z,9.40
2019-03-16T02:40:42.058Z,9.30
2019-03-16T02:43:11.933Z,9.40
2019-03-16T02:45:41.946Z,9.40
2019-03-16T02:48:11.787Z,9.40
2019-03-16T02:50:41.564Z,9.40
2019-03-16T02:53:11.599Z,9.30
2019-03-16T02:55:41.425Z,9.40
2019-03-16T02:58:11.159Z,9.50
2019-03-16T03:00:41.081Z,9.60
2019-03-16T03:03:10.853Z,9.60
2019-03-16T03:05:40.935Z,9.60
2019-03-16T03:08:11.040Z,9.60
2019-03-16T03:10:41.130Z,9.60
2019-03-16T03:13:13.641Z,9.60
2019-03-16T03:15:43.124Z,9.60
2019-03-16T03:18:13.051Z,9.50
2019-03-16T03:20:42.879Z,9.50
2019-03-16T03:23:12.702Z,9.50
2019-03-16T03:25:42.566Z,9.50
2019-03-16T03:28:12.306Z,9.50
2019-03-16T03:30:42.167Z,9.40
2019-03-16T03:33:11.976Z,9.40
2019-03-16T03:35:41.895Z,9.40
2019-03-16T03:38:11.915Z,9.30
2019-03-16T03:40:41.654Z,9.30
2019-03-16T03:43:11.470Z,9.30
2019-03-16T03:45:41.247Z,9.40
2019-03-16T03:48:11.088Z,9.40
2019-03-16T03:50:40.926Z,9.40
2019-03-16T03:53:10.739Z,9.50
2019-03-16T03:55:40.772Z,9.40
2019-03-16T03:58:10.594Z,9.40
2019-03-16T04:00:40.426Z,9.40
2019-03-16T04:03:10.343Z,9.30
2019-03-16T04:05:40.241Z,9.30
2019-03-16T04:08:10.067Z,9.30
2019-03-16T04:10:39.812Z,9.30
2019-03-16T04:13:09.627Z,9.30
2019-03-16T04:15:39.450Z,9.20
2019-03-16T04:18:09.531Z,9.20
2019-03-16T04:20:39.359Z,9.20
2019-03-16T04:23:09.171Z,9.20
2019-03-16T04:25:39.973Z,9.30
2019-03-16T04:28:09.704Z,9.30
2019-03-16T04:30:39.547Z,9.20
2019-03-16T04:33:09.634Z,9.20
2019-03-16T04:35:39.374Z,9.20
2019-03-16T04:38:09.215Z,9.20
2019-03-16T04:40:39.490Z,9.20
2019-03-16T04:43:09.548Z,9.30
2019-03-16T04:45:39.303Z,9.30
2019-03-16T04:48:09.134Z,9.30
2019-03-16T04:50:39.214Z,9.40
2019-03-16T04:53:09.272Z,9.40
2019-03-16T04:55:39.022Z,9.50
2019-03-16T04:58:08.839Z,9.50
2019-03-16T05:00:38.583Z,9.50
2019-03-16T05:03:08.828Z,9.50
2019-03-16T05:05:38.854Z,9.50
2019-03-16T05:08:08.810Z,9.50
2019-03-16T05:10:38.706Z,9.50
2019-03-16T05:13:08.550Z,9.50
2019-03-16T05:15:39.438Z,9.50
2019-03-16T05:18:09.324Z,9.50
2019-03-16T05:20:39.204Z,9.60
2019-03-16T05:23:08.994Z,9.50
2019-03-16T05:25:38.996Z,9.50
2019-03-16T05:28:08.735Z,9.50
2019-03-16T05:30:38.574Z,9.50
2019-03-16T05:33:08.315Z,9.60
2019-03-16T05:35:38.063Z,9.60
2019-03-16T05:38:07.812Z,9.60
2019-03-16T05:40:37.634Z,9.60
2019-03-16T05:43:07.404Z,9.60
2019-03-16T05:45:37.571Z,9.60
2019-03-16T05:48:07.458Z,9.60
2019-03-16T05:50:37.310Z,9.60
2019-03-16T05:53:07.126Z,9.70
2019-03-16T05:55:36.970Z,9.70
2019-03-16T05:58:06.782Z,9.60
2019-03-16T06:00:36.619Z,9.70
2019-03-16T06:03:06.435Z,9.70
2019-03-16T06:05:36.199Z,9.80
2019-03-16T06:08:06.106Z,9.80
2019-03-16T06:10:35.838Z,9.80
2019-03-16T06:13:05.691Z,9.80
2019-03-16T06:15:35.493Z,9.80
2019-03-16T06:18:05.346Z,9.80
2019-03-16T06:20:35.559Z,9.90
2019-03-16T06:23:05.443Z,9.90
2019-03-16T06:25:35.503Z,9.90
2019-03-16T06:28:05.426Z,9.90
2019-03-16T06:30:35.354Z,10.00
2019-03-16T06:33:05.270Z,10.10
2019-03-16T06:35:35.106Z,10.10
2019-03-16T06:38:04.942Z,10.10
2019-03-16T06:40:34.771Z,10.20
2019-03-16T06:43:04.590Z,10.30
2019-03-16T06:45:34.594Z,10.30
2019-03-16T06:48:04.430Z,10.40
2019-03-16T06:50:34.397Z,10.50
2019-03-16T06:53:04.370Z,10.50
2019-03-16T06:55:34.354Z,10.60
2019-03-16T06:58:04.254Z,10.50
2019-03-16T07:00:34.463Z,10.50
2019-03-16T07:03:04.527Z,10.60
2019-03-16T07:05:38.718Z,10.60
2019-03-16T07:08:06.054Z,10.60
2019-03-16T07:10:36.077Z,10.50
2019-03-16T07:13:05.851Z,10.60
2019-03-16T07:15:35.842Z,10.50
2019-03-16T07:18:05.917Z,10.60
2019-03-16T07:20:35.783Z,10.50
2019-03-16T07:23:05.695Z,10.50
2019-03-16T07:25:35.476Z,10.60
2019-03-16T07:28:05.390Z,10.70
2019-03-16T07:30:37.239Z,10.60
2019-03-16T07:33:06.874Z,10.70
2019-03-16T07:35:36.709Z,10.60
2019-03-16T07:38:06.530Z,10.60
2019-03-16T07:40:36.433Z,10.60
2019-03-16T07:43:06.254Z,10.60
2019-03-16T07:45:35.993Z,10.70
2019-03-16T07:48:05.818Z,10.80
2019-03-16T07:50:36.082Z,10.90
2019-03-16T07:53:06.915Z,10.90
2019-03-16T07:55:36.690Z,10.90
2019-03-16T07:58:08.390Z,10.90
2019-03-16T08:00:38.134Z,11.00
2019-03-16T08:03:07.927Z,11.20
2019-03-16T08:05:38.074Z,11.40
2019-03-16T08:08:08.082Z,11.60
2019-03-16T08:10:37.826Z,11.60
2019-03-16T08:13:07.576Z,11.60
2019-03-16T08:15:37.419Z,11.70
2019-03-16T08:18:08.043Z,11.70
2019-03-16T08:20:37.975Z,11.60
2019-03-16T08:23:07.731Z,11.80
2019-03-16T08:25:37.731Z,11.70
2019-03-16T08:28:07.558Z,12.10
2019-03-16T08:30:37.662Z,12.10
2019-03-16T08:33:07.778Z,11.90
2019-03-16T08:35:37.904Z,11.70
2019-03-16T08:38:07.760Z,11.60
2019-03-16T08:40:38.618Z,11.60
2019-03-16T08:43:08.635Z,11.70
2019-03-16T08:45:38.469Z,11.80
2019-03-16T08:48:08.407Z,11.70
2019-03-16T08:50:38.243Z,11.60
2019-03-16T08:53:08.027Z,11.60
2019-03-16T08:55:37.797Z,11.50
2019-03-16T08:58:07.905Z,11.60
2019-03-16T09:00:37.814Z,11.60
2019-03-16T09:03:07.819Z,11.70
2019-03-16T09:05:37.702Z,11.90
2019-03-16T09:08:07.530Z,11.90
2019-03-16T09:10:37.399Z,11.90
2019-03-16T09:13:07.475Z,11.90
2019-03-16T09:15:37.553Z,12.10
2019-03-16T09:18:08.591Z,12.00
2019-03-16T09:20:38.603Z,12.00
2019-03-16T09:23:08.666Z,11.80
2019-03-16T09:25:38.790Z,11.80
2019-03-16T09:28:18.022Z,11.80
2019-03-16T09:30:40.393Z,11.80
2019-03-16T09:33:10.576Z,11.80
2019-03-16T09:35:40.918Z,11.80
2019-03-16T09:38:10.990Z,11.80
2019-03-16T09:40:40.923Z,11.90
2019-03-16T09:43:10.990Z,12.20
2019-03-16T09:45:42.449Z,12.30
2019-03-16T09:48:14.013Z,12.10
2019-03-16T09:50:47.519Z,12.20
2019-03-16T09:53:18.299Z,12.50
2019-03-16T09:55:49.135Z,12.60
2019-03-16T09:58:30.681Z,12.50
2019-03-16T10:00:52.703Z,12.50
2019-03-16T10:03:23.232Z,12.50
2019-03-16T10:05:57.007Z,12.60
2019-03-16T10:08:27.704Z,12.70
2019-03-16T10:10:58.531Z,13.00
2019-03-16T10:13:29.159Z,12.80
2019-03-16T10:15:59.749Z,12.60
2019-03-16T10:18:30.299Z,12.40
2019-03-16T10:21:04.472Z,12.40
2019-03-16T10:23:34.434Z,12.40
2019-03-16T10:26:04.644Z,12.20
2019-03-16T10:28:43.265Z,12.20
2019-03-16T10:31:11.328Z,12.10
2019-03-16T10:33:44.382Z,12.00
2019-03-16T10:36:16.646Z,12.20
2019-03-16T10:38:51.218Z,12.20
2019-03-16T10:41:29.771Z,12.10
2019-03-16T10:44:02.730Z,11.90
2019-03-16T10:46:38.043Z,11.80
2019-03-16T10:49:17.502Z,12.00
2019-03-16T10:51:50.553Z,12.20
2019-03-16T10:54:29.633Z,12.50
2019-03-16T10:57:04.470Z,12.60
2019-03-16T10:59:34.493Z,12.70
2019-03-16T11:02:05.470Z,12.70
2019-03-16T11:04:35.400Z,12.70
2019-03-16T11:07:05.556Z,12.80
2019-03-16T11:09:35.648Z,12.80
2019-03-16T11:12:05.891Z,12.90
2019-03-16T11:14:35.887Z,13.00
2019-03-16T11:17:05.842Z,13.30
2019-03-16T11:19:35.982Z,13.70
2019-03-16T11:22:06.251Z,15.50
2019-03-16T11:24:36.462Z,16.40
2019-03-16T11:27:06.458Z,16.00
2019-03-16T11:29:36.627Z,15.70
2019-03-16T11:32:06.503Z,15.50
2019-03-16T11:34:36.270Z,15.90
2019-03-16T11:37:07.272Z,16.90
2019-03-16T11:39:37.119Z,17.40
2019-03-16T11:42:06.954Z,17.70
2019-03-16T11:44:36.738Z,17.40
2019-03-16T11:47:06.578Z,18.20
2019-03-16T11:49:36.683Z,18.00
2019-03-16T11:52:06.531Z,18.20
2019-03-16T11:54:36.326Z,17.40
2019-03-16T11:57:06.341Z,16.60
2019-03-16T12:02:05.841Z,15.50
2019-03-16T12:04:36.198Z,15.00
2019-03-16T12:07:06.066Z,14.60
2019-03-16T12:09:36.119Z,14.30
2019-03-16T12:12:05.934Z,14.10
2019-03-16T12:14:35.862Z,13.80
2019-03-16T12:17:05.662Z,13.60
2019-03-16T12:19:35.438Z,13.60
2019-03-16T12:22:05.314Z,13.80
2019-03-16T12:24:35.537Z,14.30
2019-03-16T12:27:06.414Z,15.00
2019-03-16T12:29:36.210Z,15.00
2019-03-16T12:32:06.055Z,15.00
2019-03-16T12:34:35.887Z,14.50
2019-03-16T12:37:07.091Z,14.20
2019-03-16T12:39:37.081Z,14.00
2019-03-16T12:42:07.087Z,14.10
2019-03-16T12:44:37.014Z,14.20
2019-03-16T12:47:09.142Z,14.50
2019-03-16T12:49:39.199Z,16.30
2019-03-16T12:52:09.070Z,16.40
2019-03-16T12:54:39.229Z,16.70
2019-03-16T12:57:09.250Z,16.10
2019-03-16T12:59:46.997Z,15.40
2019-03-16T13:02:10.827Z,15.00
2019-03-16T13:04:40.606Z,15.10
2019-03-16T13:07:10.606Z,16.50
2019-03-16T13:09:43.825Z,17.90
2019-03-16T13:12:12.252Z,19.30
2019-03-16T13:14:42.176Z,20.00
2019-03-16T13:17:12.014Z,19.90
2019-03-16T13:19:42.050Z,20.70
2019-03-16T13:22:12.046Z,21.70
2019-03-16T13:24:42.038Z,21.90
2019-03-16T13:27:11.935Z,21.10
2019-03-16T13:29:42.179Z,18.90
2019-03-16T13:32:12.393Z,17.90
2019-03-16T13:34:42.514Z,17.90
2019-03-16T13:37:12.321Z,17.40
2019-03-16T13:39:42.219Z,16.80
2019-03-16T13:42:12.023Z,16.60
2019-03-16T13:44:42.247Z,16.20
2019-03-16T13:47:12.339Z,16.00
2019-03-16T13:49:42.696Z,15.80
2019-03-16T13:52:12.623Z,15.80
2019-03-16T13:54:42.837Z,15.50
2019-03-16T13:57:12.802Z,15.40
2019-03-16T13:59:42.647Z,15.30
2019-03-16T14:02:12.558Z,15.40
2019-03-16T14:04:42.806Z,15.70
2019-03-16T14:07:12.918Z,15.70
2019-03-16T14:09:42.832Z,15.80
2019-03-16T14:12:12.894Z,15.70
2019-03-16T14:14:43.248Z,15.40
2019-03-16T14:17:13.214Z,15.50
2019-03-16T14:19:43.107Z,15.40
2019-03-16T14:22:13.171Z,15.30
2019-03-16T14:24:42.970Z,15.30
2019-03-16T14:27:13.158Z,15.30
2019-03-16T14:29:43.267Z,15.40
2019-03-16T14:32:13.790Z,15.20
2019-03-16T14:34:43.953Z,15.50
2019-03-16T14:37:14.340Z,16.00
2019-03-16T14:39:44.183Z,16.90
2019-03-16T14:42:14.567Z,17.80
2019-03-16T14:44:44.514Z,18.70
2019-03-16T14:47:14.333Z,19.10
2019-03-16T14:49:44.510Z,18.60
2019-03-16T14:52:14.682Z,17.50
2019-03-16T14:54:44.531Z,16.50
2019-03-16T14:57:14.354Z,15.70
2019-03-16T14:59:44.370Z,15.30
2019-03-16T15:02:14.362Z,15.30
2019-03-16T15:04:44.266Z,15.20
2019-03-16T15:07:14.097Z,15.20
2019-03-16T15:09:43.918Z,15.20
2019-03-16T15:12:16.077Z,15.20
2019-03-16T15:14:52.065Z,15.30
2019-03-16T15:17:32.043Z,15.10
2019-03-16T15:20:07.194Z,15.10
2019-03-16T15:22:40.172Z,15.00
2019-03-16T15:25:14.286Z,14.80
2019-03-16T15:27:46.761Z,14.70
2019-03-16T15:30:17.931Z,15.50
2019-03-16T15:32:48.515Z,16.90
2019-03-16T15:35:19.071Z,17.90
2019-03-16T15:37:49.881Z,18.90
2019-03-16T15:40:22.146Z,18.90
2019-03-16T15:42:52.727Z,19.10
2019-03-16T15:45:23.523Z,19.10
2019-03-16T15:47:56.563Z,19.50
2019-03-16T15:50:27.636Z,19.60
2019-03-16T15:53:01.126Z,19.90
2019-03-16T15:55:32.167Z,19.20
2019-03-16T15:58:08.395Z,18.90
2019-03-16T16:00:37.642Z,18.60
2019-03-16T16:03:09.207Z,18.00
2019-03-16T16:05:38.990Z,17.00
2019-03-16T16:08:08.762Z,16.20
2019-03-16T16:10:40.696Z,15.90
2019-03-16T16:13:10.305Z,15.50
2019-03-16T16:18:09.426Z,15.00
2019-03-16T16:20:40.248Z,14.90
2019-03-16T16:23:10.490Z,14.70
2019-03-16T16:25:40.626Z,14.70
2019-03-16T16:28:10.471Z,14.60
2019-03-16T16:30:40.627Z,14.50
2019-03-16T16:33:10.778Z,14.40
2019-03-16T16:35:40.571Z,14.30
2019-03-16T16:38:10.472Z,14.10
2019-03-16T16:40:45.135Z,14.00
2019-03-16T16:43:17.021Z,13.80
2019-03-16T16:45:47.030Z,13.70
2019-03-16T16:48:18.236Z,13.60
2019-03-16T16:50:48.092Z,13.50
2019-03-16T16:53:27.337Z,13.40
2019-03-16T16:56:01.103Z,13.20
2019-03-16T16:58:31.663Z,13.00
2019-03-16T17:01:02.542Z,12.70
2019-03-16T17:03:34.309Z,12.50
2019-03-16T17:06:07.839Z,12.30
2019-03-16T17:08:38.126Z,12.20
2019-03-16T17:11:08.002Z,11.90
2019-03-16T17:13:37.906Z,11.70
2019-03-16T17:16:07.853Z,11.50
2019-03-16T17:18:41.383Z,11.30
2019-03-16T17:21:11.381Z,11.10
2019-03-16T17:23:41.179Z,11.00
2019-03-16T17:26:12.076Z,10.90
2019-03-16T17:28:43.406Z,10.70
2019-03-16T17:31:15.058Z,10.70
2019-03-16T17:33:46.086Z,10.50
2019-03-16T17:36:16.918Z,10.60
2019-03-16T17:38:48.315Z,10.60
2019-03-16T17:41:18.628Z,10.40
2019-03-16T17:43:48.450Z,10.20
2019-03-16T17:46:18.710Z,10.10
2019-03-16T17:48:48.611Z,9.90
2019-03-16T17:51:18.384Z,9.80
2019-03-16T17:53:48.118Z,9.60
2019-03-16T17:56:17.943Z,9.50
2019-03-16T17:58:47.847Z,9.30
2019-03-16T18:01:17.759Z,9.20
2019-03-16T18:03:47.848Z,9.00
2019-03-16T18:06:17.811Z,8.90
2019-03-16T18:08:47.848Z,8.80
2019-03-16T18:11:17.618Z,8.70
2019-03-16T18:13:47.382Z,8.50
2019-03-16T18:16:17.162Z,8.40
2019-03-16T18:18:47.061Z,8.30
2019-03-16T18:21:16.986Z,8.20
2019-03-16T18:23:47.058Z,8.00
2019-03-16T18:26:17.266Z,8.00
2019-03-16T18:28:48.433Z,7.90
2019-03-16T18:31:18.319Z,7.80
2019-03-16T18:33:48.094Z,7.80
2019-03-16T18:36:17.861Z,7.70
2019-03-16T18:38:47.591Z,7.70
2019-03-16T18:41:17.661Z,7.70
2019-03-16T18:43:47.394Z,7.60
2019-03-16T18:46:17.227Z,7.60
2019-03-16T18:48:47.954Z,7.60
2019-03-16T18:51:17.970Z,7.60
2019-03-16T18:53:48.329Z,7.70
2019-03-16T18:56:18.132Z,7.80
2019-03-16T18:58:47.954Z,7.90
2019-03-16T19:01:17.735Z,7.90
2019-03-16T19:03:47.566Z,8.00
2019-03-16T19:06:17.411Z,8.00
2019-03-16T19:08:47.227Z,8.00
2019-03-16T19:11:17.093Z,7.90
2019-03-16T19:13:47.186Z,7.80
2019-03-16T19:16:17.073Z,7.70
2019-03-16T19:18:46.822Z,7.50
2019-03-16T19:21:17.118Z,7.40
2019-03-16T19:23:47.218Z,7.30
2019-03-16T19:26:17.296Z,7.40
2019-03-16T19:28:47.034Z,7.30
2019-03-16T19:31:23.404Z,7.30
2019-03-16T19:33:53.323Z,7.30
2019-03-16T19:36:23.354Z,7.30
2019-03-16T19:38:54.246Z,7.20
2019-03-16T19:41:41.685Z,7.10
2019-03-16T19:44:10.471Z,7.00
2019-03-16T19:46:48.412Z,7.10
2019-03-16T19:49:27.214Z,7.00
2019-03-16T19:52:04.175Z,6.90
2019-03-16T19:54:33.994Z,6.90
2019-03-16T19:57:15.361Z,6.80
2019-03-16T19:59:35.477Z,6.90
2019-03-16T20:02:05.463Z,6.80
2019-03-16T20:04:36.395Z,6.80
2019-03-16T20:07:18.495Z,6.80
2019-03-16T20:09:37.878Z,6.70
2019-03-16T20:12:07.651Z,6.70
2019-03-16T20:14:37.434Z,6.70
2019-03-16T20:17:07.288Z,6.60
2019-03-16T20:19:37.106Z,6.60
2019-03-16T20:22:07.018Z,6.50
2019-03-16T20:24:37.800Z,6.40
2019-03-16T20:27:07.638Z,6.30
2019-03-16T20:29:37.455Z,6.30
2019-03-16T20:32:07.478Z,6.30
2019-03-16T20:34:37.227Z,6.20
2019-03-16T20:37:07.050Z,6.10
2019-03-16T20:39:36.863Z,6.00
2019-03-16T20:42:06.660Z,5.90
2019-03-16T20:44:36.538Z,5.80
2019-03-16T20:47:06.372Z,5.70
2019-03-16T20:49:36.140Z,5.70
2019-03-16T20:52:06.082Z,5.60
2019-03-16T20:54:36.045Z,5.50
2019-03-16T20:57:05.891Z,5.40
2019-03-16T20:59:35.766Z,5.30
2019-03-16T21:02:05.595Z,5.20
2019-03-16T21:04:35.346Z,5.00
2019-03-16T21:07:05.270Z,4.90
2019-03-16T21:09:35.330Z,4.90
2019-03-16T21:12:05.234Z,4.80
2019-03-16T21:14:35.051Z,4.70
2019-03-16T21:17:04.980Z,4.70
2019-03-16T21:19:34.989Z,4.70
2019-03-16T21:22:04.907Z,4.60
2019-03-16T21:24:34.650Z,4.60
2019-03-16T21:27:04.545Z,4.60
2019-03-16T21:29:34.300Z,4.50
2019-03-16T21:32:04.431Z,4.50
2019-03-16T21:34:34.519Z,4.40
2019-03-16T21:37:04.359Z,4.30
2019-03-16T21:39:34.250Z,4.20
2019-03-16T21:42:04.183Z,4.10
2019-03-16T21:44:34.026Z,4.00
2019-03-16T21:47:06.483Z,4.00
2019-03-16T21:49:35.498Z,3.90
2019-03-16T21:52:05.489Z,3.80
2019-03-16T21:54:35.295Z,3.70
2019-03-16T21:57:05.267Z,3.70
2019-03-16T21:59:35.019Z,3.50
2019-03-16T22:02:04.922Z,3.50
2019-03-16T22:04:35.155Z,3.40
2019-03-16T22:07:04.986Z,3.40
2019-03-16T22:09:34.939Z,3.30
2019-03-16T22:12:05.190Z,3.40
2019-03-16T22:14:37.566Z,3.40
2019-03-16T22:17:08.495Z,3.50
2019-03-16T22:19:39.746Z,3.60
2019-03-16T22:22:09.502Z,3.50
2019-03-16T22:24:39.536Z,3.50
2019-03-16T22:27:09.426Z,3.50
2019-03-16T22:29:39.887Z,3.50
2019-03-16T22:32:09.801Z,3.50
2019-03-16T22:34:39.563Z,3.40
2019-03-16T22:37:09.393Z,3.40
2019-03-16T22:39:39.130Z,3.40
2019-03-16T22:42:12.577Z,3.40
2019-03-16T22:44:45.813Z,3.50
2019-03-16T22:47:16.896Z,3.50
2019-03-16T22:49:46.833Z,3.50
2019-03-16T22:52:16.914Z,3.40
2019-03-16T22:54:46.727Z,3.40
2019-03-16T22:57:16.562Z,3.30
2019-03-16T22:59:46.566Z,3.30
2019-03-16T23:02:17.047Z,3.20
2019-03-16T23:04:48.415Z,3.20
2019-03-16T23:07:18.338Z,3.10
2019-03-16T23:09:48.278Z,3.00
2019-03-16T23:12:18.222Z,2.90
2019-03-16T23:14:48.228Z,2.90
2019-03-16T23:17:18.090Z,2.70
2019-03-16T23:19:47.946Z,2.60
2019-03-16T23:22:17.827Z,2.50
2019-03-16T23:24:47.768Z,2.40
2019-03-16T23:27:17.574Z,2.40
2019-03-16T23:29:49.359Z,2.30
2019-03-16T23:32:19.327Z,2.20
2019-03-16T23:34:51.290Z,2.20
2019-03-16T23:37:21.993Z,2.10
2019-03-16T23:39:53.659Z,2.10
2019-03-16T23:42:24.198Z,2.10
2019-03-16T23:44:54.479Z,2.10
2019-03-16T23:47:24.820Z,2.20
2019-03-16T23:49:54.843Z,2.20
2019-03-16T23:52:24.740Z,2.30
2019-03-16T23:54:54.670Z,2.40
2019-03-16T23:57:24.750Z,2.50
2019-03-16T23:59:55.294Z,2.50
